Chippewa Valley Regional Airport Eau Claire US
ICAO: KEAU
IATA: EAU
Category: Medium
Scheduled Services: Yes

Elevation: 913 ft
TransAlt. 18000 ft.

Airport Communications:
MINNEAPOLIS APP/DEP:125.3
ASOS:119.675
GREEN BAY RDO:122.65
CTAF/UNICOM:123

KEAU Zoom In..

Runways:

(A) RW 04 length 8101 ft width 150 ft
---- / hdg 44

(B) RW 14 length 5000 ft width 100 ft
---- / hdg 138

(C) RW 22 length 8101 ft width 150 ft
ILS 109.50 / hdg 224

(D) RW 32 length 5000 ft width 100 ft
---- / hdg 318

Location; KEAU
Day. 04 / Time. 16.56 Zulu
* Altimeter: 29.94
* Temperature: 03° c. 37.4°f.
* Wind from: 030° Speed 07 kn.
Dewpoint: -04° c.
Visibility: 10 Statute Miles.
Clouds: Clear (automated report).

KEAU 041656Z 03007KT 10SM CLR 03/M04 A2994 RMK AO2 SLP149 T00281044

Going to: --> -->


Wind From 030°
Speed 07 kn.

 
 
jpsmedia worldairports.se 2020   terms of use